Colfax, WI (54730)

1:35 AM CDT on May 26, 2015 (GMT -0500)
5 Miles SE of Colfax | | Change Station
CLOSE
Current Station
Personal Weather Station
Location: Colfax, WI
Elevation: 1115 ft
Nearby Weather Stations

Elev 1115 ft 44.96 °N, 91.67 °W | Updated 13 minutes ago

Partly Cloudy
Partly Cloudy
56.8 °F
Feels Like 56.8 °F
N
0.0
Wind Variable Wind from SW

Today
High -- | Low -- °F
--% Chance of Precip.
Yesterday
High -- | Low -- °F
Precip. -- in
5:27 AM 8:40 PM
First Quarter, 55% visible
Pressure 29.80 in
Visibility 4.0 miles
Clouds Clear
Dew Point 56 °F
Humidity 99%
Rainfall 0.00 in
Snow Depth Not available.
UV 0 out of 12
Pollen .90 out of 12
Air Quality Not available.
Flu Activity Sporadic
METAR KLUM 260615Z AUTO 15003KT 4SM BR CLR 15/14 A2980 RMK AO2 T01470143

More Conditions Fewer Conditions

Pressure 29.80 in
Visibility 4.0 miles
Clouds Clear
Dew Point 56 °F
Humidity 99%
Rainfall 0.00 in
Snow Depth Not available.
UV 0 out of 12
Pollen .90 out of 12
Air Quality Not available.
Flu Activity Sporadic
METAR KLUM 260615Z AUTO 15003KT 4SM BR CLR 15/14 A2980 RMK AO2 T01470143

More Conditions Fewer Conditions

10-Day Weather Forecast

Almanac

Astronomy

May. 26, 2015 Rise Set
Actual Time
Civil Twilight
Nautical Twilight
Astronomical Twilight
Moon
Length of Visible Light
Length of Day
Tomorrow will be .
, % of the Moon is Illuminated

Today's Extremes

State Highs State Lows

Community

WunderPhotos

Upload Photos

1,824,294 photos uploaded!

WunderBlogs® & News

Nearby

Air Quality

  Air Quality AQ Index Pollutant
Not available.

Snow Depth

Station Depth Elevation

Earthquake Activity

City Distance Mag. Time & Date
Minimum magnitude displayed is 2.5.

Coastal Water Temperatures

Place Temperature

Stations

Nearby Weather Stations

Station Location Temp. Windchill Dew Point Humidity Wind Precip. Elev Updated Type